createdAt,value
2023-02-12T00:02:03.371Z,14.68
2023-02-12T00:04:29.955Z,15.52
2023-02-12T00:06:56.616Z,17.63
2023-02-12T00:09:23.234Z,14.88
2023-02-12T00:11:49.879Z,12.52
2023-02-12T00:14:16.437Z,18.33
2023-02-12T00:16:43.113Z,17.08
2023-02-12T00:19:09.852Z,15.63
2023-02-12T00:21:36.711Z,12.63
2023-02-12T00:24:03.722Z,14.57
2023-02-12T00:26:30.294Z,15.18
2023-02-12T00:28:56.898Z,15.07
2023-02-12T00:31:26.033Z,15.20
2023-02-12T00:33:53.129Z,13.32
2023-02-12T00:36:22.348Z,12.35
2023-02-12T00:38:50.937Z,14.10
2023-02-12T00:43:44.316Z,11.90
2023-02-12T00:46:11.575Z,10.75
2023-02-12T00:48:38.273Z,12.13
2023-02-12T00:51:05.318Z,11.20
2023-02-12T00:53:32.409Z,11.05
2023-02-12T00:55:59.402Z,11.80
2023-02-12T00:58:26.154Z,9.13
2023-02-12T01:00:53.579Z,10.32
2023-02-12T01:03:20.287Z,15.55
2023-02-12T01:05:47.144Z,15.15
2023-02-12T01:08:15.733Z,11.60
2023-02-12T01:10:43.288Z,12.57
2023-02-12T01:13:14.454Z,14.80
2023-02-12T01:15:41.917Z,12.15
2023-02-12T01:18:08.533Z,10.18
2023-02-12T01:20:35.266Z,13.80
2023-02-12T01:23:01.826Z,12.40
2023-02-12T01:25:28.374Z,14.43
2023-02-12T01:27:55.210Z,13.20
2023-02-12T01:30:24.190Z,13.38
2023-02-12T01:32:50.830Z,12.55
2023-02-12T01:35:17.555Z,12.05
2023-02-12T01:37:44.165Z,13.30
2023-02-12T01:40:13.205Z,17.27
2023-02-12T01:42:40.388Z,14.95
2023-02-12T01:45:13.170Z,16.35
2023-02-12T01:47:44.493Z,14.63
2023-02-12T01:50:17.906Z,16.67
2023-02-12T01:52:48.203Z,13.35
2023-02-12T01:55:15.397Z,14.02
2023-02-12T01:57:44.054Z,12.85
2023-02-12T02:00:14.919Z,13.75
2023-02-12T02:02:43.807Z,16.95
2023-02-12T02:05:10.645Z,15.40
2023-02-12T02:07:37.207Z,16.77
2023-02-12T02:10:04.848Z,19.95
2023-02-12T02:12:50.077Z,17.67
2023-02-12T02:15:16.833Z,15.98
2023-02-12T02:18:12.316Z,15.80
2023-02-12T02:21:03.501Z,16.48
2023-02-12T02:23:54.855Z,15.43
2023-02-12T02:26:53.823Z,16.42
2023-02-12T02:29:48.114Z,19.88
2023-02-12T02:32:25.086Z,20.40
2023-02-12T02:35:08.141Z,28.00
2023-02-12T02:37:53.305Z,22.77
2023-02-12T02:40:26.995Z,23.75
2023-02-12T02:43:18.473Z,20.33
2023-02-12T02:45:51.433Z,27.23
2023-02-12T02:48:28.073Z,27.45
2023-02-12T02:50:59.413Z,23.88
2023-02-12T02:53:32.359Z,34.75
2023-02-12T02:56:01.702Z,30.27
2023-02-12T02:58:35.902Z,32.60
2023-02-12T03:01:13.598Z,32.63
2023-02-12T03:03:41.754Z,29.42
2023-02-12T03:06:18.683Z,32.33
2023-02-12T03:08:52.644Z,29.73
2023-02-12T03:11:28.933Z,30.58
2023-02-12T03:14:07.717Z,39.05
2023-02-12T03:16:37.470Z,42.70
2023-02-12T03:19:23.552Z,35.90
2023-02-12T03:21:55.188Z,39.33
2023-02-12T03:24:30.874Z,36.38
2023-02-12T03:27:07.335Z,45.70
2023-02-12T03:29:34.097Z,38.15
2023-02-12T03:32:09.518Z,55.10
2023-02-12T03:34:45.009Z,40.13
2023-02-12T03:37:17.018Z,49.22
2023-02-12T03:39:49.782Z,40.22
2023-02-12T03:42:37.363Z,40.67
2023-02-12T03:45:10.501Z,38.78
2023-02-12T03:47:49.886Z,42.67
2023-02-12T03:50:21.575Z,41.15
2023-02-12T03:52:50.107Z,46.60
2023-02-12T03:57:52.274Z,52.92
2023-02-12T04:00:22.739Z,39.17
2023-02-12T04:02:49.442Z,42.00
2023-02-12T04:05:22.258Z,43.80
2023-02-12T04:07:49.767Z,35.95
2023-02-12T04:10:17.119Z,41.15
2023-02-12T04:12:57.820Z,40.15
2023-02-12T04:15:43.186Z,38.65
2023-02-12T04:18:20.820Z,41.28
2023-02-12T04:21:01.786Z,40.40
2023-02-12T04:23:53.231Z,41.90
2023-02-12T04:26:30.760Z,38.15
2023-02-12T04:28:59.720Z,35.50
2023-02-12T04:31:50.174Z,36.33
2023-02-12T04:34:28.868Z,34.10
2023-02-12T04:37:04.470Z,32.90
2023-02-12T04:39:34.519Z,37.40
2023-02-12T04:42:01.720Z,33.00
2023-02-12T04:44:32.002Z,33.60
2023-02-12T04:46:58.725Z,33.90
2023-02-12T04:49:25.604Z,33.03
2023-02-12T04:51:52.537Z,29.10
2023-02-12T04:54:21.188Z,27.10
2023-02-12T04:56:47.920Z,32.75
2023-02-12T04:59:15.063Z,28.70
2023-02-12T05:01:42.541Z,25.33
2023-02-12T05:04:12.148Z,29.70
2023-02-12T05:06:39.839Z,26.92
2023-02-12T05:09:07.445Z,31.97
2023-02-12T05:11:34.131Z,36.65
2023-02-12T05:14:00.739Z,36.08
2023-02-12T05:16:27.670Z,37.53
2023-02-12T05:18:54.239Z,37.55
2023-02-12T05:21:20.818Z,40.53
2023-02-12T05:23:47.417Z,41.72
2023-02-12T05:26:17.201Z,48.03
2023-02-12T05:28:44.066Z,44.60
2023-02-12T05:31:14.861Z,48.67
2023-02-12T05:33:46.051Z,53.17
2023-02-12T05:36:17.831Z,49.85
2023-02-12T05:38:44.646Z,55.83
2023-02-12T05:41:13.608Z,57.65
2023-02-12T05:43:40.923Z,54.20
2023-02-12T05:46:08.828Z,58.67
2023-02-12T05:48:36.238Z,56.35
2023-02-12T05:51:14.450Z,62.97
2023-02-12T05:53:41.816Z,52.85
2023-02-12T05:56:35.855Z,59.83
2023-02-12T05:59:07.502Z,57.92
2023-02-12T06:01:40.031Z,56.97
2023-02-12T06:04:14.902Z,56.70
2023-02-12T06:06:42.345Z,63.63
2023-02-12T06:09:10.395Z,51.47
2023-02-12T06:11:37.272Z,57.42
2023-02-12T06:14:08.837Z,67.28
2023-02-12T06:16:35.662Z,54.05
2023-02-12T06:19:04.562Z,52.72
2023-02-12T06:21:31.524Z,58.05
2023-02-12T06:23:58.404Z,50.80
2023-02-12T06:26:25.471Z,59.50
2023-02-12T06:28:52.562Z,68.22
2023-02-12T06:31:23.417Z,73.22
2023-02-12T06:33:50.825Z,68.85
2023-02-12T06:36:17.980Z,76.43
2023-02-12T06:38:44.546Z,80.50
2023-02-12T06:41:11.182Z,75.88
2023-02-12T06:43:37.877Z,90.25
2023-02-12T06:46:05.382Z,71.82
2023-02-12T06:48:31.985Z,97.88
2023-02-12T06:51:09.631Z,96.32
2023-02-12T06:53:36.230Z,105.70
2023-02-12T06:56:04.944Z,76.55
2023-02-12T06:58:32.165Z,83.05
2023-02-12T07:01:08.702Z,99.03
2023-02-12T07:03:35.376Z,92.93
2023-02-12T07:06:03.800Z,84.93
2023-02-12T07:08:30.383Z,78.90
2023-02-12T07:10:56.934Z,80.53
2023-02-12T07:13:23.531Z,96.90
2023-02-12T07:15:50.240Z,97.60
2023-02-12T07:18:16.950Z,98.90
2023-02-12T07:20:43.540Z,89.72
2023-02-12T07:23:13.751Z,80.68
2023-02-12T07:25:40.456Z,96.53
2023-02-12T07:28:06.997Z,96.80
2023-02-12T07:30:33.680Z,93.80
2023-02-12T07:33:00.342Z,113.30
2023-02-12T07:35:26.902Z,102.25
2023-02-12T07:37:53.626Z,105.10
2023-02-12T07:40:20.424Z,100.22
2023-02-12T07:42:50.010Z,100.80
2023-02-12T07:45:16.651Z,86.97
2023-02-12T07:47:43.240Z,101.18
2023-02-12T07:50:10.272Z,96.30
2023-02-12T07:52:36.890Z,98.40
2023-02-12T07:55:03.546Z,88.80
2023-02-12T07:57:30.217Z,80.45
2023-02-12T07:59:56.792Z,85.25
2023-02-12T08:02:25.637Z,83.70
2023-02-12T08:04:57.279Z,84.25
2023-02-12T08:07:24.224Z,88.45
2023-02-12T08:09:51.504Z,88.53
2023-02-12T08:12:18.467Z,78.18
2023-02-12T08:14:45.263Z,79.40
2023-02-12T08:17:11.873Z,70.03
2023-02-12T08:19:38.531Z,69.47
2023-02-12T08:22:06.509Z,74.50
2023-02-12T08:24:33.423Z,72.05
2023-02-12T08:27:00.145Z,67.57
2023-02-12T08:29:29.567Z,70.72
2023-02-12T08:31:58.661Z,65.82
2023-02-12T08:34:28.157Z,69.28
2023-02-12T08:36:56.016Z,65.78
2023-02-12T08:39:24.058Z,69.45
2023-02-12T08:41:50.740Z,72.15
2023-02-12T08:44:17.773Z,57.58
2023-02-12T08:46:50.230Z,67.95
2023-02-12T08:49:22.338Z,64.68
2023-02-12T08:51:51.954Z,59.35
2023-02-12T08:54:23.945Z,65.60
2023-02-12T08:56:51.427Z,64.35
2023-02-12T08:59:18.052Z,67.38
2023-02-12T09:01:45.007Z,59.72
2023-02-12T09:04:21.622Z,64.45
2023-02-12T09:06:48.839Z,60.90
2023-02-12T09:09:16.050Z,59.15
2023-02-12T09:11:43.059Z,64.13
2023-02-12T09:14:12.816Z,63.03
2023-02-12T09:16:42.357Z,66.10
2023-02-12T09:19:10.925Z,69.85
2023-02-12T09:24:04.229Z,67.85
2023-02-12T09:26:31.132Z,66.85
2023-02-12T09:28:57.858Z,80.80
2023-02-12T09:31:27.631Z,71.07
2023-02-12T09:34:05.645Z,70.40
2023-02-12T09:36:33.291Z,64.93
2023-02-12T09:39:00.503Z,68.97
2023-02-12T09:41:54.594Z,69.10
2023-02-12T09:44:26.868Z,70.80
2023-02-12T09:47:11.747Z,64.38
2023-02-12T09:49:55.781Z,61.72
2023-02-12T09:52:26.866Z,60.20
2023-02-12T09:54:53.720Z,65.30
2023-02-12T09:57:35.767Z,60.13
2023-02-12T10:00:16.312Z,55.47
2023-02-12T10:02:43.025Z,60.13
2023-02-12T10:05:18.231Z,55.10
2023-02-12T10:07:57.030Z,60.75
2023-02-12T10:10:42.432Z,59.88
2023-02-12T10:13:31.842Z,55.03
2023-02-12T10:16:27.022Z,48.88
2023-02-12T10:19:30.047Z,58.88
2023-02-12T10:22:08.661Z,51.95
2023-02-12T10:24:53.423Z,57.13
2023-02-12T10:27:45.240Z,58.20
2023-02-12T10:30:27.109Z,45.13
2023-02-12T10:33:00.997Z,49.97
2023-02-12T10:35:27.781Z,43.72
2023-02-12T10:38:03.286Z,41.28
2023-02-12T10:40:34.441Z,44.88
2023-02-12T10:43:02.113Z,39.92
2023-02-12T10:45:38.279Z,35.47
2023-02-12T10:48:11.875Z,35.42
2023-02-12T10:51:21.129Z,39.08
2023-02-12T10:53:48.580Z,31.02
2023-02-12T10:56:19.147Z,35.72
2023-02-12T10:59:01.853Z,31.45
2023-02-12T11:01:34.478Z,33.03
2023-02-12T11:04:24.483Z,30.73
2023-02-12T11:07:00.435Z,30.88
2023-02-12T11:09:35.394Z,33.13
2023-02-12T11:12:03.023Z,27.38
2023-02-12T11:14:29.640Z,31.23
2023-02-12T11:16:58.367Z,31.08
2023-02-12T11:19:27.950Z,33.63
2023-02-12T11:22:19.339Z,31.30
2023-02-12T11:24:47.086Z,29.23
2023-02-12T11:27:16.566Z,28.77
2023-02-12T11:29:44.650Z,25.52
2023-02-12T11:32:19.357Z,26.80
2023-02-12T11:35:17.912Z,25.60
2023-02-12T11:37:46.295Z,21.45
2023-02-12T11:40:22.282Z,26.15
2023-02-12T11:42:58.408Z,21.85
2023-02-12T11:45:47.592Z,18.98
2023-02-12T11:48:21.261Z,23.33
2023-02-12T11:50:49.452Z,22.42
2023-02-12T11:53:25.953Z,23.65
2023-02-12T11:55:58.966Z,22.23
2023-02-12T11:58:26.989Z,20.98
2023-02-12T12:00:59.605Z,19.30
2023-02-12T12:03:43.903Z,20.50
2023-02-12T12:06:16.634Z,18.52
2023-02-12T12:09:04.238Z,16.88
2023-02-12T12:12:08.021Z,16.00
2023-02-12T12:15:01.708Z,19.35
2023-02-12T12:17:58.054Z,15.73
2023-02-12T12:20:27.892Z,17.50
2023-02-12T12:23:02.462Z,16.23
2023-02-12T12:25:35.153Z,16.98
2023-02-12T12:28:29.095Z,13.85
2023-02-12T12:31:14.110Z,13.73
2023-02-12T12:33:50.355Z,14.48
2023-02-12T12:36:25.941Z,9.45
2023-02-12T12:39:07.201Z,10.70
2023-02-12T12:41:48.125Z,10.10
2023-02-12T12:44:25.884Z,9.63
2023-02-12T12:47:04.533Z,9.48
2023-02-12T12:49:37.205Z,8.18
2023-02-12T12:52:08.239Z,8.82
2023-02-12T12:55:21.421Z,8.50
2023-02-12T12:58:25.358Z,9.30
2023-02-12T13:01:18.296Z,9.70
2023-02-12T13:03:57.094Z,10.18
2023-02-12T13:06:26.471Z,8.88
2023-02-12T13:09:13.806Z,10.35
2023-02-12T13:11:52.527Z,9.02
2023-02-12T13:14:27.942Z,10.07
2023-02-12T13:17:22.442Z,9.98
2023-02-12T13:20:12.319Z,10.93
2023-02-12T13:22:55.657Z,10.10
2023-02-12T13:25:26.631Z,9.27
2023-02-12T13:27:54.393Z,8.05
2023-02-12T13:30:34.257Z,10.75
2023-02-12T13:33:06.802Z,7.95
2023-02-12T13:35:35.539Z,7.78
2023-02-12T13:38:03.048Z,10.48
2023-02-12T13:40:30.789Z,9.95
2023-02-12T13:43:34.317Z,9.38
2023-02-12T13:46:27.020Z,10.43
2023-02-12T13:49:24.397Z,8.93
2023-02-12T13:51:57.266Z,12.00
2023-02-12T13:54:57.247Z,10.65
2023-02-12T13:57:23.844Z,8.15
2023-02-12T13:59:55.496Z,7.88
2023-02-12T14:02:34.690Z,7.82
2023-02-12T14:05:13.286Z,11.15
2023-02-12T14:07:45.757Z,11.35
2023-02-12T14:10:26.905Z,8.02
2023-02-12T14:12:56.106Z,9.95
2023-02-12T14:15:45.561Z,10.10
2023-02-12T14:18:21.814Z,9.73
2023-02-12T14:20:48.466Z,10.93
2023-02-12T14:23:27.448Z,12.20
2023-02-12T14:26:15.341Z,14.15
2023-02-12T14:28:47.677Z,11.50
2023-02-12T14:31:23.799Z,13.10
2023-02-12T14:34:16.615Z,8.95
2023-02-12T14:36:45.133Z,11.60
2023-02-12T14:41:48.510Z,9.90
2023-02-12T14:44:18.119Z,11.05
2023-02-12T14:46:50.070Z,9.35
2023-02-12T14:49:25.478Z,9.52
2023-02-12T14:52:09.582Z,9.10
2023-02-12T14:54:41.022Z,9.10
2023-02-12T14:57:12.916Z,10.77
2023-02-12T14:59:41.753Z,11.27
2023-02-12T15:02:23.306Z,12.98
2023-02-12T15:04:51.000Z,10.45
2023-02-12T15:07:24.859Z,12.03
2023-02-12T15:09:58.080Z,10.10
2023-02-12T15:12:34.899Z,11.95
2023-02-12T15:15:08.748Z,12.30
2023-02-12T15:17:39.163Z,13.32
2023-02-12T15:20:20.526Z,11.15
2023-02-12T15:22:47.314Z,10.63
2023-02-12T15:25:28.106Z,10.45
2023-02-12T15:28:02.099Z,10.50
2023-02-12T15:30:34.317Z,11.13
2023-02-12T15:33:04.526Z,12.35
2023-02-12T15:35:33.810Z,9.55
2023-02-12T15:38:01.265Z,12.20
2023-02-12T15:40:31.868Z,11.02
2023-02-12T15:43:00.749Z,9.82
2023-02-12T15:45:35.981Z,9.77
2023-02-12T15:48:14.125Z,12.05
2023-02-12T15:50:48.256Z,11.35
2023-02-12T15:53:15.031Z,12.90
2023-02-12T15:55:44.433Z,10.48
2023-02-12T15:58:31.768Z,9.13
2023-02-12T16:01:03.907Z,11.85
2023-02-12T16:03:38.478Z,9.93
2023-02-12T16:06:11.596Z,9.82
2023-02-12T16:08:38.900Z,10.20
2023-02-12T16:11:13.952Z,11.02
2023-02-12T16:13:46.107Z,10.10
2023-02-12T16:16:12.672Z,9.13
2023-02-12T16:18:41.048Z,10.50
2023-02-12T16:21:12.712Z,10.35
2023-02-12T16:23:39.390Z,11.13
2023-02-12T16:26:06.143Z,10.25
2023-02-12T16:28:32.928Z,11.98
2023-02-12T16:31:13.635Z,10.98
2023-02-12T16:33:40.179Z,9.30
2023-02-12T16:36:13.484Z,9.27
2023-02-12T16:38:55.265Z,9.57
2023-02-12T16:41:33.412Z,10.82
2023-02-12T16:43:59.966Z,9.77
2023-02-12T16:46:28.189Z,10.75
2023-02-12T16:48:56.411Z,10.40
2023-02-12T16:51:29.031Z,13.80
2023-02-12T16:53:57.722Z,11.90
2023-02-12T16:56:29.825Z,13.05
2023-02-12T16:59:00.623Z,9.90
2023-02-12T17:01:30.465Z,11.98
2023-02-12T17:03:58.675Z,14.48
2023-02-12T17:06:28.246Z,12.65
2023-02-12T17:08:55.088Z,12.35
2023-02-12T17:11:23.140Z,14.77
2023-02-12T17:13:51.692Z,13.50
2023-02-12T17:16:29.902Z,14.30
2023-02-12T17:18:57.278Z,14.27
2023-02-12T17:21:32.373Z,13.38
2023-02-12T17:23:59.121Z,15.05
2023-02-12T17:26:25.958Z,14.45
2023-02-12T17:28:52.539Z,12.73
2023-02-12T17:31:20.971Z,12.85
2023-02-12T17:36:14.242Z,15.88
2023-02-12T17:38:40.792Z,17.73
2023-02-12T17:41:11.199Z,15.80
2023-02-12T17:43:37.869Z,15.38
2023-02-12T17:46:12.959Z,18.10
2023-02-12T17:48:40.666Z,17.13
2023-02-12T17:51:09.706Z,21.73
2023-02-12T17:53:36.262Z,18.73
2023-02-12T17:56:03.149Z,17.73
2023-02-12T17:58:30.519Z,21.27
2023-02-12T18:00:57.927Z,19.17
2023-02-12T18:03:24.787Z,19.00
2023-02-12T18:05:51.335Z,18.45
2023-02-12T18:08:17.944Z,18.75
2023-02-12T18:10:45.505Z,18.52
2023-02-12T18:13:13.798Z,18.05
2023-02-12T18:15:41.050Z,17.00
2023-02-12T18:18:07.771Z,20.15
2023-02-12T18:20:34.401Z,16.63
2023-02-12T18:23:01.074Z,17.08
2023-02-12T18:25:27.666Z,16.60
2023-02-12T18:27:54.297Z,19.08
2023-02-12T18:30:21.012Z,18.05
2023-02-12T18:32:47.705Z,21.42
2023-02-12T18:35:14.857Z,19.17
2023-02-12T18:37:43.233Z,19.25
2023-02-12T18:40:10.798Z,16.73
2023-02-12T18:42:37.499Z,16.27
2023-02-12T18:45:04.401Z,14.00
2023-02-12T18:47:31.013Z,17.83
2023-02-12T18:49:58.077Z,23.13
2023-02-12T18:52:24.862Z,15.88
2023-02-12T18:54:53.148Z,16.15
2023-02-12T18:57:19.960Z,16.80
2023-02-12T18:59:46.549Z,19.77
2023-02-12T19:02:14.113Z,19.35
2023-02-12T19:04:40.871Z,17.42
2023-02-12T19:07:07.612Z,24.13
2023-02-12T19:09:34.328Z,20.85
2023-02-12T19:12:00.958Z,18.30
2023-02-12T19:14:28.241Z,19.65
2023-02-12T19:16:54.811Z,19.65
2023-02-12T19:19:21.694Z,20.00
2023-02-12T19:21:48.837Z,22.05
2023-02-12T19:24:16.465Z,19.73
2023-02-12T19:26:44.533Z,19.10
2023-02-12T19:29:12.445Z,18.95
2023-02-12T19:31:41.688Z,20.13
2023-02-12T19:34:15.995Z,20.25
2023-02-12T19:36:43.410Z,18.08
2023-02-12T19:39:10.975Z,22.75
2023-02-12T19:41:43.477Z,18.52
2023-02-12T19:44:12.842Z,17.73
2023-02-12T19:46:40.584Z,16.23
2023-02-12T19:49:14.423Z,22.38
2023-02-12T19:51:41.766Z,21.83
2023-02-12T19:54:10.225Z,18.85
2023-02-12T19:56:37.285Z,18.75
2023-02-12T19:59:06.373Z,20.85
2023-02-12T20:01:33.436Z,23.45
2023-02-12T20:04:00.851Z,22.27
2023-02-12T20:06:30.836Z,21.95
2023-02-12T20:08:57.500Z,23.20
2023-02-12T20:11:28.859Z,21.85
2023-02-12T20:13:56.314Z,20.77
2023-02-12T20:16:24.937Z,21.13
2023-02-12T20:18:53.375Z,20.52
2023-02-12T20:21:25.482Z,19.23
2023-02-12T20:23:52.132Z,17.98
2023-02-12T20:26:19.892Z,17.10
2023-02-12T20:28:47.909Z,18.85
2023-02-12T20:31:20.631Z,17.83
2023-02-12T20:33:48.110Z,16.83
2023-02-12T20:36:15.005Z,18.45
2023-02-12T20:38:42.689Z,17.95
2023-02-12T20:41:10.393Z,21.40
2023-02-12T20:43:37.711Z,21.17
2023-02-12T20:46:09.300Z,26.25
2023-02-12T20:48:36.821Z,19.35
2023-02-12T20:51:08.696Z,19.05
2023-02-12T20:53:35.681Z,16.60
2023-02-12T20:56:07.760Z,16.70
2023-02-12T20:58:34.593Z,17.52
2023-02-12T21:01:21.189Z,16.42
2023-02-12T21:03:48.670Z,20.38
2023-02-12T21:06:15.235Z,19.27
2023-02-12T21:08:42.041Z,19.90
2023-02-12T21:11:17.911Z,17.80
2023-02-12T21:13:58.374Z,18.38
2023-02-12T21:16:30.385Z,20.00
2023-02-12T21:18:57.063Z,17.67
2023-02-12T21:21:28.333Z,19.38
2023-02-12T21:23:57.060Z,19.77
2023-02-12T21:26:25.449Z,19.52
2023-02-12T21:28:52.646Z,25.02
2023-02-12T21:31:20.957Z,23.42
2023-02-12T21:33:48.973Z,21.83
2023-02-12T21:36:20.319Z,26.25
2023-02-12T21:38:48.838Z,24.27
2023-02-12T21:44:06.353Z,22.02
2023-02-12T21:46:34.030Z,24.70
2023-02-12T21:49:00.945Z,22.83
2023-02-12T21:51:36.222Z,23.10
2023-02-12T21:54:06.445Z,22.33
2023-02-12T21:56:33.158Z,22.23
2023-02-12T21:58:59.829Z,23.13
2023-02-12T22:01:34.800Z,21.25
2023-02-12T22:04:02.598Z,21.95
2023-02-12T22:06:29.504Z,20.83
2023-02-12T22:09:00.604Z,21.13
2023-02-12T22:11:27.185Z,21.40
2023-02-12T22:13:53.791Z,22.63
2023-02-12T22:16:22.720Z,22.60
2023-02-12T22:18:51.912Z,21.67
2023-02-12T22:21:19.092Z,21.52
2023-02-12T22:23:45.768Z,24.23
2023-02-12T22:26:17.148Z,22.13
2023-02-12T22:28:46.321Z,23.52
2023-02-12T22:31:14.987Z,20.85
2023-02-12T22:33:41.541Z,22.08
2023-02-12T22:36:09.560Z,21.20
2023-02-12T22:38:37.178Z,20.85
2023-02-12T22:41:04.425Z,20.80
2023-02-12T22:43:32.383Z,23.55
2023-02-12T22:45:59.215Z,21.17
2023-02-12T22:48:26.837Z,23.50
2023-02-12T22:50:53.371Z,20.40
2023-02-12T22:53:20.324Z,19.40
2023-02-12T22:55:46.879Z,19.98
2023-02-12T22:58:13.451Z,23.42
2023-02-12T23:00:40.958Z,21.83
2023-02-12T23:03:07.614Z,21.27
2023-02-12T23:05:37.823Z,23.55
2023-02-12T23:08:05.471Z,23.30
2023-02-12T23:10:32.602Z,22.83
2023-02-12T23:12:59.347Z,22.55
2023-02-12T23:15:25.923Z,21.48
2023-02-12T23:17:52.486Z,22.27
2023-02-12T23:20:19.221Z,23.05
2023-02-12T23:22:45.772Z,22.75
2023-02-12T23:25:12.376Z,19.83
2023-02-12T23:27:39.270Z,21.30
2023-02-12T23:30:06.509Z,20.40
2023-02-12T23:32:33.085Z,19.67
2023-02-12T23:34:59.698Z,20.20
2023-02-12T23:37:26.252Z,19.80
2023-02-12T23:39:52.850Z,20.23
2023-02-12T23:42:19.456Z,21.58
2023-02-12T23:44:45.994Z,21.73
2023-02-12T23:47:12.540Z,20.17
2023-02-12T23:49:39.191Z,22.40
2023-02-12T23:52:05.781Z,22.30
2023-02-12T23:54:32.409Z,19.80
2023-02-12T23:56:59.019Z,24.88
2023-02-12T23:59:25.836Z,22.73
